Time;durP1;ratioP1;P1;durP2;ratioP2;P2;SDS_P1;SDS_P2;PMS_P1;PMS_P2;Temp;Humidity;BMP_temperature;BMP_pressure;BME280_temperature;BME280_humidity;BME280_pressure;Samples;Min_cycle;Max_cycle;Signal;HPM_P1;HPM_P2
2023/12/21 00:02:13;;;;;;;1.10;0.75;;;6.80;99.90;;;;;;5012321;28;20104;-78
2023/12/21 00:04:40;;;;;;;2.08;0.82;;;6.80;99.90;;;;;;5006252;28;20050;-77
2023/12/21 00:07:06;;;;;;;1.23;1.00;;;6.80;99.90;;;;;;5011892;28;20050;-78
2023/12/21 00:09:33;;;;;;;1.33;0.63;;;6.80;99.90;;;;;;5008463;28;20136;-78
2023/12/21 00:12:00;;;;;;;1.23;0.70;;;6.80;99.90;;;;;;5011134;28;20061;-79
2023/12/21 00:14:30;;;;;;;2.08;0.73;;;6.80;99.90;;;;;;5009266;28;20050;-77
2023/12/21 00:16:57;;;;;;;1.65;0.80;;;6.80;99.90;;;;;;5009718;28;20136;-77
2023/12/21 00:19:24;;;;;;;0.93;0.60;;;6.80;99.90;;;;;;5010679;28;20049;-78
2023/12/21 00:21:51;;;;;;;2.38;0.60;;;6.90;99.90;;;;;;5011086;28;20573;-79
2023/12/21 00:24:18;;;;;;;1.13;0.65;;;6.90;99.90;;;;;;5010379;28;20439;-80
2023/12/21 00:26:45;;;;;;;1.90;0.70;;;6.90;99.90;;;;;;5006826;28;20466;-79
2023/12/21 00:29:13;;;;;;;0.70;0.70;;;6.90;99.90;;;;;;5010067;28;20041;-77
2023/12/21 00:31:39;;;;;;;3.53;1.05;;;6.90;99.90;;;;;;5006420;28;20097;-79
2023/12/21 00:34:06;;;;;;;1.05;0.52;;;6.90;99.90;;;;;;5007797;28;20042;-79
2023/12/21 00:36:33;;;;;;;0.63;0.60;;;6.90;99.90;;;;;;5006029;28;20054;-79
2023/12/21 00:39:00;;;;;;;0.75;0.70;;;6.90;99.90;;;;;;5010209;28;20054;-78
2023/12/21 00:41:27;;;;;;;1.60;0.70;;;6.90;99.90;;;;;;5008384;28;20506;-79
2023/12/21 00:43:54;;;;;;;2.45;1.10;;;6.90;99.90;;;;;;5010676;28;20053;-79
2023/12/21 00:46:20;;;;;;;0.70;0.70;;;6.90;99.90;;;;;;5008446;28;20074;-78
2023/12/21 00:48:47;;;;;;;1.75;0.70;;;6.90;99.90;;;;;;5008539;28;20516;-79
2023/12/21 00:51:14;;;;;;;1.13;0.70;;;6.90;99.90;;;;;;5004071;28;20129;-79
2023/12/21 00:53:41;;;;;;;1.92;0.80;;;6.90;99.90;;;;;;5008332;28;20511;-77
2023/12/21 00:56:08;;;;;;;0.50;0.50;;;7.00;99.90;;;;;;5010096;28;20042;-79
2023/12/21 00:58:35;;;;;;;0.60;0.60;;;7.00;99.90;;;;;;5007493;28;20056;-77
2023/12/21 01:01:02;;;;;;;1.30;0.57;;;7.00;99.90;;;;;;5009467;28;20050;-76
2023/12/21 01:03:29;;;;;;;2.85;0.80;;;7.00;99.90;;;;;;5007802;28;20045;-78
2023/12/21 01:05:56;;;;;;;1.20;0.82;;;7.00;99.90;;;;;;5007541;28;20124;-80
2023/12/21 01:08:22;;;;;;;1.50;0.70;;;7.00;99.90;;;;;;5006844;28;20061;-77
2023/12/21 01:10:49;;;;;;;1.15;0.50;;;7.00;99.90;;;;;;5010021;28;20054;-77
2023/12/21 01:13:16;;;;;;;0.77;0.50;;;7.00;99.90;;;;;;5008850;28;20050;-78
2023/12/21 01:15:42;;;;;;;1.85;1.25;;;7.00;99.90;;;;;;5008764;28;20082;-78
2023/12/21 01:18:09;;;;;;;2.10;1.45;;;7.00;99.90;;;;;;5007388;28;20080;-78
2023/12/21 01:20:36;;;;;;;1.40;0.60;;;7.00;99.90;;;;;;5011121;28;20042;-79
2023/12/21 01:23:03;;;;;;;0.63;0.50;;;7.00;99.90;;;;;;5006053;28;20104;-78
2023/12/21 01:25:29;;;;;;;1.35;0.60;;;7.00;99.90;;;;;;5008098;28;20050;-79
2023/12/21 01:27:56;;;;;;;1.42;0.60;;;7.00;99.90;;;;;;5005857;28;20058;-80
2023/12/21 01:30:23;;;;;;;1.48;0.55;;;7.00;99.90;;;;;;5007634;28;20100;-79
2023/12/21 01:32:50;;;;;;;1.13;0.60;;;7.00;99.90;;;;;;5005023;28;20060;-77
2023/12/21 01:35:17;;;;;;;2.85;0.70;;;7.10;99.90;;;;;;5005625;28;20073;-79
2023/12/21 01:37:44;;;;;;;0.68;0.50;;;7.10;99.90;;;;;;5005794;28;20052;-79
2023/12/21 01:40:11;;;;;;;0.75;0.52;;;7.00;99.90;;;;;;5005834;28;20064;-78
2023/12/21 01:42:38;;;;;;;3.10;0.80;;;7.00;99.90;;;;;;5006527;28;20049;-79
2023/12/21 01:45:05;;;;;;;0.88;0.60;;;7.00;99.90;;;;;;5010585;28;20050;-79
2023/12/21 01:47:32;;;;;;;0.60;0.60;;;7.00;99.90;;;;;;5014617;28;20540;-78
2023/12/21 01:49:59;;;;;;;1.20;0.60;;;7.00;99.90;;;;;;5005390;28;20141;-79
2023/12/21 01:52:27;;;;;;;1.65;0.70;;;7.00;99.90;;;;;;5009524;28;20049;-77
2023/12/21 01:54:54;;;;;;;0.50;0.50;;;7.10;99.90;;;;;;5002338;28;20058;-79
2023/12/21 01:57:22;;;;;;;2.83;0.60;;;7.00;99.90;;;;;;5008627;28;20457;-77
2023/12/21 01:59:49;;;;;;;0.38;0.38;;;7.00;99.90;;;;;;5003627;28;20045;-79
2023/12/21 02:02:15;;;;;;;0.50;0.50;;;7.00;99.90;;;;;;5007539;28;20100;-77
2023/12/21 02:04:43;;;;;;;0.40;0.40;;;7.00;99.90;;;;;;5010244;28;20502;-77
2023/12/21 02:07:10;;;;;;;0.50;0.50;;;7.10;99.90;;;;;;5006721;28;20050;-78
2023/12/21 02:09:37;;;;;;;0.95;0.50;;;7.00;99.90;;;;;;5008367;28;20046;-77
2023/12/21 02:12:04;;;;;;;0.40;0.40;;;7.00;99.90;;;;;;5005270;28;20081;-78
2023/12/21 02:14:30;;;;;;;0.85;0.55;;;7.10;99.90;;;;;;5006836;28;20054;-78
2023/12/21 02:17:10;;;;;;;1.15;0.70;;;7.10;99.90;;;;;;5008207;28;20514;-78
2023/12/21 02:19:38;;;;;;;0.63;0.63;;;7.10;99.90;;;;;;5005707;28;20077;-79
2023/12/21 02:22:07;;;;;;;0.80;0.40;;;7.10;99.90;;;;;;5003938;28;20081;-79
2023/12/21 02:24:34;;;;;;;2.67;0.32;;;7.10;99.90;;;;;;5006228;28;20053;-77
2023/12/21 02:27:01;;;;;;;0.50;0.50;;;7.10;99.90;;;;;;5002768;28;20089;-79
2023/12/21 02:29:27;;;;;;;0.50;0.40;;;7.10;99.90;;;;;;5016105;28;20060;-78
2023/12/21 02:31:54;;;;;;;1.67;0.60;;;7.10;99.90;;;;;;5017638;28;20054;-79
2023/12/21 02:34:21;;;;;;;0.47;0.47;;;7.10;99.90;;;;;;5024053;28;20050;-79
2023/12/21 02:36:48;;;;;;;1.30;0.40;;;7.20;99.90;;;;;;5008049;28;20488;-77
2023/12/21 02:39:15;;;;;;;0.40;0.40;;;7.10;99.90;;;;;;5007935;28;20117;-77
2023/12/21 02:41:41;;;;;;;2.15;0.70;;;7.10;99.90;;;;;;5007668;28;20046;-77
2023/12/21 02:44:08;;;;;;;0.63;0.60;;;7.20;99.90;;;;;;5005965;28;20042;-77
2023/12/21 02:46:35;;;;;;;0.40;0.40;;;7.10;99.90;;;;;;5008203;28;20096;-77
2023/12/21 02:49:02;;;;;;;1.23;0.52;;;7.20;99.90;;;;;;5005370;28;20050;-78
2023/12/21 02:51:28;;;;;;;1.88;0.40;;;7.20;99.90;;;;;;5008551;28;20050;-78
2023/12/21 02:53:55;;;;;;;0.60;0.60;;;7.20;99.90;;;;;;5010206;28;20049;-78
2023/12/21 02:56:22;;;;;;;0.75;0.50;;;7.20;99.90;;;;;;5012869;28;20048;-79
2023/12/21 02:58:49;;;;;;;1.25;0.60;;;7.20;99.90;;;;;;5006934;28;20101;-78
2023/12/21 03:01:15;;;;;;;0.43;0.40;;;7.20;99.90;;;;;;5012361;28;20296;-79
2023/12/21 03:03:42;;;;;;;0.47;0.38;;;7.20;99.90;;;;;;5009047;28;20042;-79
2023/12/21 03:06:09;;;;;;;1.00;0.40;;;7.20;99.90;;;;;;5011078;28;20051;-79
2023/12/21 03:08:36;;;;;;;2.75;0.50;;;7.20;99.90;;;;;;5009514;28;20212;-78
2023/12/21 03:11:02;;;;;;;1.40;0.50;;;7.20;99.90;;;;;;5010647;28;20081;-77
2023/12/21 03:13:29;;;;;;;0.85;0.57;;;7.20;99.90;;;;;;5009636;28;20085;-79
2023/12/21 03:15:56;;;;;;;1.13;0.60;;;7.30;99.90;;;;;;5009705;28;20050;-78
2023/12/21 03:18:22;;;;;;;1.17;0.55;;;7.30;99.90;;;;;;5011206;28;20442;-79
2023/12/21 03:20:49;;;;;;;1.95;0.50;;;7.30;99.90;;;;;;5021187;28;20046;-79
2023/12/21 03:23:16;;;;;;;1.27;0.63;;;7.30;99.90;;;;;;5026297;28;20042;-77
2023/12/21 03:25:42;;;;;;;0.93;0.50;;;7.20;99.90;;;;;;5029145;28;20073;-79
2023/12/21 03:28:10;;;;;;;0.82;0.50;;;7.30;99.90;;;;;;5032784;28;20050;-77
2023/12/21 03:30:37;;;;;;;1.48;0.30;;;7.30;99.90;;;;;;5029030;28;20061;-79
2023/12/21 03:33:04;;;;;;;0.55;0.40;;;7.30;99.90;;;;;;5026543;28;20050;-77
2023/12/21 03:35:32;;;;;;;0.30;0.30;;;7.30;99.90;;;;;;5026227;28;20097;-77
2023/12/21 03:37:58;;;;;;;0.95;0.88;;;7.30;99.90;;;;;;5030058;28;20050;-77
2023/12/21 03:40:25;;;;;;;0.40;0.40;;;7.30;99.90;;;;;;5027069;28;20065;-77
2023/12/21 03:42:52;;;;;;;0.40;0.30;;;7.30;99.90;;;;;;5026420;28;20046;-75
2023/12/21 03:45:19;;;;;;;0.40;0.40;;;7.30;99.90;;;;;;5027466;28;20049;-76
2023/12/21 03:47:48;;;;;;;1.77;0.40;;;7.30;99.90;;;;;;5030483;28;20045;-76
2023/12/21 03:50:15;;;;;;;0.40;0.40;;;7.30;99.90;;;;;;5034021;28;20046;-75
2023/12/21 03:52:42;;;;;;;1.15;0.30;;;7.30;99.90;;;;;;5027552;28;20070;-78
2023/12/21 03:55:08;;;;;;;0.30;0.30;;;7.40;99.90;;;;;;5030225;28;20050;-76
2023/12/21 03:57:36;;;;;;;0.30;0.30;;;7.40;99.90;;;;;;5010195;28;20461;-77
2023/12/21 04:00:03;;;;;;;0.40;0.40;;;7.40;99.90;;;;;;5010164;28;20076;-77
2023/12/21 04:02:31;;;;;;;0.30;0.28;;;7.40;99.90;;;;;;5012155;28;20053;-79
2023/12/21 04:04:57;;;;;;;0.30;0.30;;;7.40;99.90;;;;;;5011415;28;20073;-79
2023/12/21 04:07:24;;;;;;;0.98;0.38;;;7.40;99.90;;;;;;5010225;28;20061;-78
2023/12/21 04:09:51;;;;;;;1.50;0.80;;;7.40;99.90;;;;;;5009001;28;20050;-79
2023/12/21 04:12:18;;;;;;;0.65;0.30;;;7.40;99.90;;;;;;5009234;28;20050;-78
2023/12/21 04:14:44;;;;;;;0.30;0.30;;;7.40;99.90;;;;;;5012797;28;20517;-79
2023/12/21 04:17:11;;;;;;;0.20;0.20;;;7.40;99.90;;;;;;5008160;28;20046;-78
2023/12/21 04:19:38;;;;;;;0.20;0.20;;;7.40;99.90;;;;;;5008740;28;20514;-77
2023/12/21 04:22:04;;;;;;;2.38;0.45;;;7.40;99.90;;;;;;5014757;28;20129;-79
2023/12/21 04:24:31;;;;;;;0.30;0.30;;;7.40;99.90;;;;;;5013511;28;20042;-80
2023/12/21 04:26:58;;;;;;;0.40;0.20;;;7.50;99.90;;;;;;5008998;28;20073;-80
2023/12/21 04:29:24;;;;;;;0.60;0.50;;;7.50;99.90;;;;;;5008930;28;20389;-78
2023/12/21 04:31:51;;;;;;;0.30;0.30;;;7.50;99.90;;;;;;5012359;28;20086;-78
2023/12/21 04:34:18;;;;;;;3.40;0.40;;;7.50;99.90;;;;;;5010336;28;20054;-77
2023/12/21 04:36:45;;;;;;;0.30;0.30;;;7.50;99.90;;;;;;5012384;28;20215;-77
2023/12/21 04:39:12;;;;;;;0.30;0.30;;;7.60;99.90;;;;;;5008454;28;20138;-77
2023/12/21 04:41:39;;;;;;;2.05;0.30;;;7.60;99.90;;;;;;5010925;28;20046;-79
2023/12/21 04:44:06;;;;;;;0.30;0.30;;;7.60;99.90;;;;;;5007833;28;20133;-78
2023/12/21 04:46:33;;;;;;;0.25;0.25;;;7.60;99.90;;;;;;5012982;28;20112;-78
2023/12/21 04:49:00;;;;;;;0.43;0.43;;;7.60;99.90;;;;;;5005640;28;20046;-78
2023/12/21 04:51:27;;;;;;;0.57;0.40;;;7.60;99.90;;;;;;5015314;28;20049;-79
2023/12/21 04:53:54;;;;;;;0.30;0.30;;;7.60;99.90;;;;;;5007877;28;20053;-77
2023/12/21 04:56:21;;;;;;;0.20;0.20;;;7.60;99.90;;;;;;5007271;28;20466;-77
2023/12/21 04:58:47;;;;;;;1.80;0.40;;;7.60;99.90;;;;;;5004742;28;20046;-75
2023/12/21 05:01:14;;;;;;;0.30;0.30;;;7.60;99.90;;;;;;5005899;28;20050;-77
2023/12/21 05:03:41;;;;;;;0.20;0.20;;;7.60;99.90;;;;;;5007799;28;20139;-76
2023/12/21 05:06:08;;;;;;;0.73;0.30;;;7.60;99.90;;;;;;5008181;28;20573;-77
2023/12/21 05:08:35;;;;;;;0.32;0.30;;;7.60;99.90;;;;;;5006791;28;20079;-74
2023/12/21 05:11:02;;;;;;;1.02;0.30;;;7.70;99.90;;;;;;5002691;28;20105;-76
2023/12/21 05:13:29;;;;;;;0.30;0.30;;;7.70;99.90;;;;;;5005548;28;20045;-77
2023/12/21 05:15:55;;;;;;;0.90;0.70;;;7.70;99.90;;;;;;5003849;28;20046;-80
2023/12/21 05:18:23;;;;;;;0.70;0.70;;;7.70;99.90;;;;;;5027117;28;20042;-79
2023/12/21 05:20:50;;;;;;;1.48;0.30;;;7.70;99.90;;;;;;5007457;28;20072;-80
2023/12/21 05:23:17;;;;;;;0.30;0.30;;;7.70;99.90;;;;;;5011315;28;20137;-79
2023/12/21 05:25:43;;;;;;;0.50;0.50;;;7.70;99.90;;;;;;5009087;28;20129;-78
2023/12/21 05:28:13;;;;;;;0.57;0.30;;;7.70;99.90;;;;;;5010256;28;20133;-78
2023/12/21 05:30:40;;;;;;;0.88;0.63;;;7.70;99.90;;;;;;5010958;28;20041;-78
2023/12/21 05:33:07;;;;;;;1.30;0.50;;;7.70;99.90;;;;;;5009524;28;20062;-79
2023/12/21 05:35:34;;;;;;;1.23;0.70;;;7.70;99.90;;;;;;5008281;28;20391;-79
2023/12/21 05:38:01;;;;;;;0.55;0.43;;;7.70;99.90;;;;;;5009220;28;20133;-80
2023/12/21 05:40:28;;;;;;;0.40;0.40;;;7.70;99.90;;;;;;5010751;28;20544;-79
2023/12/21 05:42:55;;;;;;;0.30;0.30;;;7.70;99.90;;;;;;5007676;28;20046;-79
2023/12/21 05:45:22;;;;;;;2.00;0.50;;;7.70;99.90;;;;;;5007289;28;20094;-80
2023/12/21 05:47:48;;;;;;;0.82;0.50;;;7.70;99.90;;;;;;5007321;28;20046;-78
2023/12/21 05:50:15;;;;;;;0.85;0.40;;;7.70;99.90;;;;;;5009841;28;20133;-76
2023/12/21 05:52:43;;;;;;;0.88;0.60;;;7.80;99.90;;;;;;5006695;28;20133;-76
2023/12/21 05:55:15;;;;;;;0.30;0.30;;;7.70;99.90;;;;;;5008906;28;20060;-76
2023/12/21 05:57:46;;;;;;;1.20;0.52;;;7.70;99.90;;;;;;5025614;23;20053;-80
2023/12/21 06:00:13;;;;;;;0.30;0.30;;;7.70;99.90;;;;;;5021768;28;20137;-76
2023/12/21 06:02:40;;;;;;;1.80;1.10;;;7.70;99.90;;;;;;5010880;28;20092;-81
2023/12/21 06:05:07;;;;;;;0.90;0.80;;;7.70;99.90;;;;;;5006706;28;20487;-81
2023/12/21 06:07:35;;;;;;;0.57;0.50;;;7.70;99.90;;;;;;5006465;28;20088;-78
2023/12/21 06:10:02;;;;;;;0.45;0.40;;;7.70;99.90;;;;;;5007646;28;20050;-78
2023/12/21 06:12:29;;;;;;;0.52;0.35;;;7.70;99.90;;;;;;5006754;28;20108;-78
2023/12/21 06:14:55;;;;;;;0.40;0.40;;;7.80;99.90;;;;;;5009038;28;20078;-78
2023/12/21 06:17:22;;;;;;;0.20;0.20;;;7.80;99.90;;;;;;5004492;28;20129;-78
2023/12/21 06:19:50;;;;;;;0.40;0.40;;;7.70;99.90;;;;;;5004711;28;20367;-79
2023/12/21 06:22:16;;;;;;;0.30;0.30;;;7.70;99.90;;;;;;5009681;28;20074;-77
2023/12/21 06:24:43;;;;;;;0.60;0.60;;;7.70;99.90;;;;;;5008069;28;20129;-78
2023/12/21 06:27:10;;;;;;;0.35;0.35;;;7.70;99.90;;;;;;5009298;28;20081;-78
2023/12/21 06:29:37;;;;;;;0.25;0.25;;;7.70;99.90;;;;;;5012780;28;20057;-77
2023/12/21 06:32:04;;;;;;;0.60;0.60;;;7.70;99.90;;;;;;5012779;28;20109;-79
2023/12/21 06:34:31;;;;;;;0.30;0.30;;;7.70;99.90;;;;;;5015169;28;20050;-79
2023/12/21 06:37:00;;;;;;;0.30;0.30;;;7.70;99.90;;;;;;5011441;28;20081;-78
2023/12/21 06:39:26;;;;;;;0.20;0.20;;;7.70;99.90;;;;;;5006310;28;20105;-78
2023/12/21 06:41:53;;;;;;;0.30;0.30;;;7.70;99.90;;;;;;5011000;28;20184;-78
2023/12/21 06:44:20;;;;;;;0.50;0.50;;;7.80;99.90;;;;;;5008708;28;20052;-78
2023/12/21 06:46:47;;;;;;;0.60;0.40;;;7.80;99.90;;;;;;5011061;28;20050;-77
2023/12/21 06:49:13;;;;;;;0.38;0.30;;;7.80;99.90;;;;;;5010998;28;20050;-77
2023/12/21 06:51:41;;;;;;;0.30;0.30;;;7.80;99.90;;;;;;5009788;28;20050;-78
2023/12/21 06:54:09;;;;;;;0.60;0.50;;;7.80;99.90;;;;;;5011331;28;20056;-77
2023/12/21 06:56:36;;;;;;;0.73;0.45;;;7.80;99.90;;;;;;5013995;28;20077;-79
2023/12/21 06:59:03;;;;;;;1.65;0.30;;;7.80;99.90;;;;;;5012253;28;20050;-77
2023/12/21 07:01:30;;;;;;;2.65;0.40;;;7.80;99.90;;;;;;5010760;28;20046;-79
2023/12/21 07:03:58;;;;;;;0.50;0.50;;;7.80;99.90;;;;;;5018036;28;20064;-78
2023/12/21 07:06:25;;;;;;;0.40;0.40;;;7.90;99.90;;;;;;5016627;28;20061;-78
2023/12/21 07:08:52;;;;;;;0.30;0.30;;;7.90;99.90;;;;;;5022619;28;20053;-78
2023/12/21 07:11:19;;;;;;;0.35;0.30;;;7.90;99.90;;;;;;5016461;28;20454;-80
2023/12/21 07:13:46;;;;;;;0.30;0.30;;;7.90;99.90;;;;;;5020649;28;20046;-78
2023/12/21 07:16:12;;;;;;;0.45;0.40;;;7.90;99.90;;;;;;5020641;28;20061;-78
2023/12/21 07:18:39;;;;;;;0.93;0.40;;;7.90;99.90;;;;;;5020596;28;20082;-79
2023/12/21 07:21:06;;;;;;;0.40;0.40;;;8.00;99.90;;;;;;5016726;28;20053;-78
2023/12/21 07:23:33;;;;;;;0.40;0.40;;;8.00;99.90;;;;;;5014055;28;20066;-80
2023/12/21 07:26:00;;;;;;;0.30;0.30;;;8.00;99.90;;;;;;5023198;28;20049;-78
2023/12/21 07:28:28;;;;;;;0.30;0.30;;;8.00;99.90;;;;;;5015671;28;20104;-78
2023/12/21 07:30:55;;;;;;;0.40;0.40;;;8.00;99.90;;;;;;5019661;28;20100;-79
2023/12/21 07:33:22;;;;;;;0.75;0.45;;;8.00;99.90;;;;;;5015062;28;20096;-80
2023/12/21 07:35:49;;;;;;;4.13;0.60;;;8.10;99.90;;;;;;5011601;28;20041;-82
2023/12/21 07:38:16;;;;;;;0.30;0.30;;;8.10;99.90;;;;;;5002862;28;20042;-77
2023/12/21 07:40:43;;;;;;;0.55;0.40;;;8.10;99.90;;;;;;5011569;28;20092;-77
2023/12/21 07:43:11;;;;;;;0.30;0.30;;;8.10;99.90;;;;;;5013644;28;20046;-80
2023/12/21 07:45:38;;;;;;;0.30;0.30;;;8.10;99.90;;;;;;5014254;28;20086;-79
2023/12/21 07:48:05;;;;;;;0.35;0.30;;;8.10;99.90;;;;;;5012026;28;20041;-78
2023/12/21 07:50:32;;;;;;;1.00;0.30;;;8.20;99.90;;;;;;5019242;28;20114;-80
2023/12/21 07:52:58;;;;;;;0.30;0.30;;;8.20;99.90;;;;;;5014635;28;20128;-78
2023/12/21 07:55:25;;;;;;;0.63;0.30;;;8.20;99.90;;;;;;5033211;28;20096;-78
2023/12/21 07:57:52;;;;;;;1.20;0.30;;;8.20;99.90;;;;;;5014313;28;20042;-78
2023/12/21 08:00:19;;;;;;;0.28;0.20;;;8.20;99.90;;;;;;5019733;28;20053;-78
2023/12/21 08:02:46;;;;;;;0.60;0.50;;;8.20;99.90;;;;;;5014821;28;20421;-78
2023/12/21 08:05:14;;;;;;;1.98;0.75;;;8.20;99.90;;;;;;5019195;28;20053;-78
2023/12/21 08:07:41;;;;;;;1.40;0.47;;;8.20;99.90;;;;;;5008937;28;20041;-79
2023/12/21 08:10:09;;;;;;;0.55;0.50;;;8.20;99.90;;;;;;5006430;28;20054;-80
2023/12/21 08:12:36;;;;;;;0.85;0.65;;;8.20;99.90;;;;;;5011700;28;20054;-79
2023/12/21 08:15:03;;;;;;;0.50;0.40;;;8.30;99.90;;;;;;5006657;28;20108;-80
2023/12/21 08:17:31;;;;;;;4.13;0.40;;;8.30;99.90;;;;;;5010277;28;20097;-78
2023/12/21 08:19:58;;;;;;;0.40;0.40;;;8.30;99.90;;;;;;5013850;28;20050;-80
2023/12/21 08:22:25;;;;;;;0.93;0.40;;;8.30;99.90;;;;;;5010345;28;20043;-81
2023/12/21 08:24:52;;;;;;;0.30;0.30;;;8.30;99.90;;;;;;5003404;28;20112;-79
2023/12/21 08:27:20;;;;;;;0.40;0.40;;;8.30;99.90;;;;;;5013278;28;20116;-79
2023/12/21 08:29:46;;;;;;;0.90;0.40;;;8.30;99.90;;;;;;5005948;28;20077;-78
2023/12/21 08:32:13;;;;;;;0.75;0.40;;;8.30;99.90;;;;;;5010250;28;20099;-82
2023/12/21 08:34:41;;;;;;;0.40;0.40;;;8.30;99.90;;;;;;5009431;28;20387;-80
2023/12/21 08:37:08;;;;;;;0.40;0.40;;;8.30;99.90;;;;;;5010966;28;20046;-80
2023/12/21 08:39:35;;;;;;;0.30;0.30;;;8.40;99.90;;;;;;5010895;28;20430;-79
2023/12/21 08:42:02;;;;;;;1.20;0.35;;;8.40;99.90;;;;;;5008282;28;20096;-80
2023/12/21 08:44:29;;;;;;;1.15;0.50;;;8.40;99.90;;;;;;5012022;28;20045;-79
2023/12/21 08:47:00;;;;;;;0.60;0.40;;;8.40;99.90;;;;;;5007498;28;20458;-80
2023/12/21 08:49:27;;;;;;;0.32;0.32;;;8.40;99.90;;;;;;5007038;28;20085;-80
2023/12/21 08:51:53;;;;;;;0.40;0.40;;;8.40;99.90;;;;;;5008843;28;20049;-79
2023/12/21 08:54:21;;;;;;;0.50;0.35;;;8.40;99.90;;;;;;5006894;28;20053;-80
2023/12/21 08:56:50;;;;;;;0.80;0.60;;;8.40;99.90;;;;;;5007810;28;20137;-80
2023/12/21 08:59:18;;;;;;;0.65;0.40;;;8.50;99.90;;;;;;5009460;28;20073;-79
2023/12/21 09:01:44;;;;;;;1.02;0.38;;;8.50;99.90;;;;;;5006820;28;20045;-80
2023/12/21 09:04:11;;;;;;;0.93;0.43;;;8.50;99.90;;;;;;5009353;28;20457;-80
2023/12/21 09:06:39;;;;;;;0.73;0.55;;;8.50;99.90;;;;;;5005817;28;20064;-80
2023/12/21 09:09:05;;;;;;;1.05;0.95;;;8.50;99.90;;;;;;5011926;28;20046;-79
2023/12/21 09:11:32;;;;;;;2.03;0.52;;;8.50;99.90;;;;;;5008641;28;20077;-77
2023/12/21 09:13:59;;;;;;;1.02;0.60;;;8.50;99.90;;;;;;5010745;28;20092;-80
2023/12/21 09:16:25;;;;;;;2.35;1.08;;;8.50;99.90;;;;;;5008051;28;20457;-77
2023/12/21 09:18:52;;;;;;;0.77;0.60;;;8.50;99.90;;;;;;5002602;28;20050;-77
2023/12/21 09:21:19;;;;;;;1.00;0.63;;;8.60;99.90;;;;;;5011707;28;20050;-79
2023/12/21 09:23:46;;;;;;;0.45;0.40;;;8.60;99.90;;;;;;5011293;28;20516;-78
2023/12/21 09:26:13;;;;;;;1.83;0.70;;;8.60;99.90;;;;;;5007017;28;20042;-80
2023/12/21 09:28:41;;;;;;;0.70;0.50;;;8.60;99.90;;;;;;5005928;28;20077;-80
2023/12/21 09:31:08;;;;;;;1.75;0.57;;;8.60;99.90;;;;;;5010948;28;20045;-79
2023/12/21 09:33:36;;;;;;;0.70;0.38;;;8.70;99.90;;;;;;5007088;28;20042;-78
2023/12/21 09:36:04;;;;;;;0.40;0.30;;;8.70;99.90;;;;;;5009846;28;20382;-78
2023/12/21 09:38:31;;;;;;;0.63;0.50;;;8.70;99.90;;;;;;5021027;28;20052;-79
2023/12/21 09:40:59;;;;;;;0.47;0.30;;;8.70;99.90;;;;;;5011253;28;20492;-80
2023/12/21 09:43:28;;;;;;;3.13;0.30;;;8.70;99.90;;;;;;5003844;28;20050;-79
2023/12/21 09:45:57;;;;;;;0.45;0.40;;;8.70;99.90;;;;;;5008462;28;20045;-79
2023/12/21 09:48:25;;;;;;;3.10;0.30;;;8.70;99.90;;;;;;5006680;28;20058;-78
2023/12/21 09:50:54;;;;;;;0.32;0.32;;;8.70;99.90;;;;;;5008312;28;20077;-80
2023/12/21 09:53:25;;;;;;;0.47;0.30;;;8.70;99.90;;;;;;5007450;28;20081;-78
2023/12/21 09:55:53;;;;;;;0.40;0.30;;;8.80;99.90;;;;;;5011497;28;20076;-79
2023/12/21 09:58:20;;;;;;;0.55;0.32;;;8.80;99.90;;;;;;5019338;28;20042;-80
2023/12/21 10:00:47;;;;;;;0.47;0.30;;;8.80;99.90;;;;;;5004709;28;20046;-80
2023/12/21 10:03:14;;;;;;;2.05;0.30;;;8.80;99.90;;;;;;5006870;28;20081;-78
2023/12/21 10:05:41;;;;;;;0.57;0.38;;;8.80;99.90;;;;;;5005023;28;20057;-78
2023/12/21 10:08:09;;;;;;;0.35;0.35;;;8.80;99.90;;;;;;5008686;28;20050;-80
2023/12/21 10:10:37;;;;;;;0.40;0.30;;;8.80;99.90;;;;;;5009355;28;20479;-78
2023/12/21 10:13:04;;;;;;;0.28;0.28;;;8.90;99.90;;;;;;5007455;28;20054;-76
2023/12/21 10:15:34;;;;;;;0.25;0.20;;;8.90;99.90;;;;;;5004431;28;20124;-79
2023/12/21 10:18:04;;;;;;;0.30;0.30;;;8.90;99.90;;;;;;5008533;28;20148;-80
2023/12/21 10:20:31;;;;;;;0.40;0.40;;;8.90;99.90;;;;;;5006880;28;20121;-78
2023/12/21 10:22:58;;;;;;;0.20;0.20;;;8.90;99.90;;;;;;5006063;28;20077;-79
2023/12/21 10:25:25;;;;;;;0.40;0.40;;;8.90;99.90;;;;;;5005391;28;20534;-78
2023/12/21 10:27:56;;;;;;;0.45;0.40;;;8.90;99.90;;;;;;5000313;28;20104;-79
2023/12/21 10:30:23;;;;;;;;;;;8.90;99.90;;;;;;5005187;28;20053;-77
2023/12/21 10:32:55;;;;;;;0.20;0.20;;;8.90;99.90;;;;;;5004764;28;19921;-81
2023/12/21 10:35:24;;;;;;;0.30;0.30;;;8.90;99.90;;;;;;5004789;28;20049;-82
2023/12/21 10:37:52;;;;;;;0.30;0.30;;;8.90;99.90;;;;;;5010013;28;20120;-76
2023/12/21 10:40:19;;;;;;;1.13;0.50;;;8.90;99.90;;;;;;5005873;28;20058;-79
2023/12/21 10:42:49;;;;;;;0.25;0.20;;;8.90;99.90;;;;;;5002280;28;20104;-77
2023/12/21 10:45:18;;;;;;;0.52;0.30;;;8.90;99.90;;;;;;5002866;28;20104;-80
2023/12/21 10:48:06;;;;;;;0.30;0.30;;;8.90;99.90;;;;;;5006309;28;20049;-79
2023/12/21 10:50:33;;;;;;;0.30;0.30;;;8.90;99.90;;;;;;5006850;28;20050;-80
2023/12/21 10:53:02;;;;;;;0.30;0.30;;;8.90;99.90;;;;;;5006232;28;20526;-81
2023/12/21 10:55:30;;;;;;;0.35;0.25;;;8.90;99.90;;;;;;5001962;28;20054;-81
2023/12/21 10:58:00;;;;;;;0.50;0.30;;;8.90;99.90;;;;;;5005544;28;20489;-77
2023/12/21 11:00:27;;;;;;;0.40;0.40;;;8.90;99.90;;;;;;5003866;28;20054;-79
2023/12/21 11:02:57;;;;;;;0.30;0.30;;;8.90;99.90;;;;;;5006425;28;20121;-78
2023/12/21 11:05:26;;;;;;;0.32;0.32;;;8.90;99.90;;;;;;5010188;28;20125;-77
2023/12/21 11:07:54;;;;;;;0.30;0.30;;;8.90;99.90;;;;;;5009644;28;20046;-79
2023/12/21 11:10:23;;;;;;;0.30;0.30;;;8.80;99.90;;;;;;5002040;28;20051;-80
2023/12/21 11:12:51;;;;;;;0.30;0.30;;;8.90;99.90;;;;;;5009855;28;21061;-77
2023/12/21 11:15:20;;;;;;;0.28;0.28;;;8.90;99.90;;;;;;5007373;28;20077;-78
2023/12/21 11:17:52;;;;;;;0.20;0.20;;;8.90;99.90;;;;;;5008577;28;20050;-77
2023/12/21 11:20:26;;;;;;;0.20;0.20;;;8.90;99.90;;;;;;5012469;28;20046;-80
2023/12/21 11:23:10;;;;;;;0.28;0.28;;;8.90;99.90;;;;;;5002676;28;20065;-77
2023/12/21 11:25:37;;;;;;;0.20;0.20;;;9.00;99.90;;;;;;5010572;28;20499;-79
2023/12/21 11:28:04;;;;;;;0.93;0.50;;;9.00;99.90;;;;;;5010541;28;20049;-77
2023/12/21 11:30:35;;;;;;;1.35;0.30;;;8.90;99.90;;;;;;5007760;28;20057;-82
2023/12/21 11:33:07;;;;;;;0.47;0.30;;;9.00;99.90;;;;;;5007638;28;20042;-77
2023/12/21 11:35:35;;;;;;;0.30;0.30;;;9.00;99.90;;;;;;5010842;28;20137;-80
2023/12/21 11:38:07;;;;;;;0.40;0.40;;;9.10;99.90;;;;;;5008050;28;20521;-80
2023/12/21 11:40:37;;;;;;;0.68;0.40;;;9.10;99.90;;;;;;5006563;28;20050;-80
2023/12/21 11:43:06;;;;;;;0.40;0.40;;;9.10;99.90;;;;;;5009650;28;20042;-78
2023/12/21 11:45:36;;;;;;;;;;;9.10;99.90;;;;;;5014018;28;20085;-78
2023/12/21 11:48:04;;;;;;;0.50;0.30;;;9.10;99.90;;;;;;5014166;28;19996;-81
2023/12/21 11:50:33;;;;;;;0.50;0.40;;;9.10;99.90;;;;;;5006492;28;20058;-79
2023/12/21 11:53:05;;;;;;;0.30;0.25;;;9.10;99.90;;;;;;5012777;28;20042;-81
2023/12/21 11:55:43;;;;;;;0.22;0.20;;;9.10;99.90;;;;;;5005087;28;20054;-79
2023/12/21 11:58:22;;;;;;;0.38;0.30;;;9.10;99.90;;;;;;5010318;28;20038;-79
2023/12/21 12:00:51;;;;;;;0.28;0.28;;;9.10;99.90;;;;;;5023702;28;20092;-81
2023/12/21 12:03:20;;;;;;;0.28;0.28;;;9.10;99.90;;;;;;5009162;28;20049;-78
2023/12/21 12:05:53;;;;;;;0.65;0.60;;;9.10;99.90;;;;;;5010012;28;20046;-81
2023/12/21 12:08:22;;;;;;;0.47;0.30;;;9.10;99.90;;;;;;5006972;28;20056;-81
2023/12/21 12:13:18;;;;;;;1.10;0.70;;;9.20;99.90;;;;;;4969706;28;20051;-77
2023/12/21 12:15:48;;;;;;;2.30;1.15;;;9.20;99.90;;;;;;4965130;28;20051;-78
2023/12/21 12:18:15;;;;;;;1.48;0.98;;;9.20;99.90;;;;;;4966766;28;20070;-77
2023/12/21 12:20:43;;;;;;;1.67;0.82;;;9.20;99.90;;;;;;4987852;28;20055;-79
2023/12/21 12:23:11;;;;;;;0.93;0.50;;;9.20;99.90;;;;;;4952914;28;20070;-78
2023/12/21 12:25:37;;;;;;;1.40;0.52;;;9.20;99.90;;;;;;4969351;28;20047;-77
2023/12/21 12:28:14;;;;;;;1.63;0.50;;;9.20;99.90;;;;;;4965053;28;20051;-78
2023/12/21 12:30:42;;;;;;;1.05;0.30;;;9.20;99.90;;;;;;4967902;28;20055;-76
2023/12/21 12:33:12;;;;;;;0.40;0.40;;;9.20;99.90;;;;;;4967433;28;20077;-78
2023/12/21 12:35:41;;;;;;;0.30;0.30;;;9.20;99.90;;;;;;4966898;28;20047;-79
2023/12/21 12:38:07;;;;;;;1.27;0.40;;;9.20;99.90;;;;;;4965956;28;20125;-79
2023/12/21 12:40:35;;;;;;;1.40;0.32;;;9.20;99.90;;;;;;4968133;28;20083;-80
2023/12/21 12:43:03;;;;;;;0.75;0.40;;;9.20;99.90;;;;;;4972195;28;20416;-76
2023/12/21 12:45:32;;;;;;;0.30;0.30;;;9.20;99.90;;;;;;4967970;28;20518;-77
2023/12/21 12:47:59;;;;;;;0.40;0.40;;;9.20;99.90;;;;;;4970858;28;20081;-79
2023/12/21 12:50:26;;;;;;;0.20;0.20;;;9.30;99.90;;;;;;4968866;28;20063;-79
2023/12/21 12:52:53;;;;;;;0.70;0.40;;;9.20;99.90;;;;;;4974023;28;20078;-77
2023/12/21 12:55:23;;;;;;;1.40;0.32;;;9.20;99.90;;;;;;4971673;28;20046;-79
2023/12/21 12:57:55;;;;;;;0.30;0.30;;;9.30;99.90;;;;;;4970265;28;20052;-79
2023/12/21 13:00:22;;;;;;;0.30;0.30;;;9.20;99.90;;;;;;4970203;28;20251;-79
2023/12/21 13:02:48;;;;;;;0.35;0.30;;;9.30;99.90;;;;;;4971466;28;20079;-79